createdAt,value
2019-06-20T00:01:21.898Z,99815.61
2019-06-20T00:03:48.670Z,99809.67
2019-06-20T00:06:15.422Z,99797.06
2019-06-20T00:08:42.199Z,99795.87
2019-06-20T00:11:08.940Z,99792.89
2019-06-20T00:13:35.718Z,99795.80
2019-06-20T00:16:02.792Z,99793.33
2019-06-20T00:18:29.572Z,99794.72
2019-06-20T00:20:56.472Z,99793.67
2019-06-20T00:23:23.083Z,99792.52
2019-06-20T00:25:49.842Z,99792.05
2019-06-20T00:28:16.644Z,99787.69
2019-06-20T00:30:43.439Z,99784.54
2019-06-20T00:33:10.222Z,99785.91
2019-06-20T00:35:36.975Z,99783.73
2019-06-20T00:38:03.763Z,99792.23
2019-06-20T00:40:30.524Z,99786.53
2019-06-20T00:42:57.287Z,99791.56
2019-06-20T00:45:24.072Z,99788.56
2019-06-20T00:47:50.876Z,99781.98
2019-06-20T00:50:17.635Z,99790.30
2019-06-20T00:52:44.407Z,99791.65
2019-06-20T00:55:11.162Z,99795.02
2019-06-20T00:57:37.955Z,99813.43
2019-06-20T01:00:05.265Z,99814.91
2019-06-20T01:02:32.016Z,99812.97
2019-06-20T01:04:58.771Z,99820.70
2019-06-20T01:07:25.528Z,99823.97
2019-06-20T01:09:52.269Z,99818.62
2019-06-20T01:12:19.075Z,99819.60
2019-06-20T01:14:45.842Z,99819.52
2019-06-20T01:17:13.703Z,99823.23
2019-06-20T01:19:40.478Z,99819.97
2019-06-20T01:22:07.388Z,99828.06
2019-06-20T01:24:34.162Z,99830.09
2019-06-20T01:27:00.983Z,99838.04
2019-06-20T01:29:27.731Z,99827.50
2019-06-20T01:31:54.482Z,99823.28
2019-06-20T01:34:21.248Z,99825.11
2019-06-20T01:36:48.010Z,99832.36
2019-06-20T01:39:14.776Z,99826.72
2019-06-20T01:41:41.533Z,99832.59
2019-06-20T01:44:08.306Z,99835.91
2019-06-20T01:46:35.069Z,99822.75
2019-06-20T01:49:01.859Z,99817.33
2019-06-20T01:51:28.678Z,99821.09
2019-06-20T01:53:55.463Z,99815.32
2019-06-20T01:56:22.262Z,99814.44
2019-06-20T01:58:49.015Z,99822.42
2019-06-20T02:01:15.774Z,99829.89
2019-06-20T02:03:42.543Z,99827.14
2019-06-20T02:06:09.309Z,99830.47
2019-06-20T02:08:36.074Z,99839.20
2019-06-20T02:11:02.841Z,99842.82
2019-06-20T02:13:29.631Z,99844.95
2019-06-20T02:15:56.438Z,99842.75
2019-06-20T02:18:23.203Z,99835.79
2019-06-20T02:20:51.098Z,99831.00
2019-06-20T02:23:17.941Z,99833.84
2019-06-20T02:25:44.731Z,99845.30
2019-06-20T02:28:11.525Z,99846.60
2019-06-20T02:30:38.292Z,99848.33
2019-06-20T02:33:05.065Z,99845.99
2019-06-20T02:35:31.845Z,99851.58
2019-06-20T02:37:58.577Z,99852.67
2019-06-20T02:40:25.360Z,99859.47
2019-06-20T02:42:52.152Z,99867.97
2019-06-20T02:45:18.908Z,99877.05
2019-06-20T02:47:45.653Z,99878.52
2019-06-20T02:50:12.416Z,99885.77
2019-06-20T02:52:39.160Z,99886.54
2019-06-20T02:55:05.911Z,99884.11
2019-06-20T02:57:32.688Z,99888.86
2019-06-20T02:59:59.454Z,99894.77
2019-06-20T03:02:26.261Z,99894.97
2019-06-20T03:04:53.019Z,99891.77
2019-06-20T03:07:19.762Z,99893.72
2019-06-20T03:09:46.512Z,99895.77
2019-06-20T03:12:13.254Z,99898.20
2019-06-20T03:14:45.381Z,99895.06
2019-06-20T03:17:06.935Z,99889.40
2019-06-20T03:19:33.700Z,99884.47
2019-06-20T03:22:00.443Z,99884.38
2019-06-20T03:24:27.226Z,99884.06
2019-06-20T03:26:53.992Z,99890.23
2019-06-20T03:29:20.754Z,99893.56
2019-06-20T03:31:47.541Z,99896.70
2019-06-20T03:34:14.310Z,99902.37
2019-06-20T03:36:41.031Z,99900.95
2019-06-20T03:39:07.795Z,99908.34
2019-06-20T03:41:34.538Z,99911.42
2019-06-20T03:44:01.307Z,99904.27
2019-06-20T03:46:28.050Z,99907.17
2019-06-20T03:48:54.820Z,99902.92
2019-06-20T03:51:21.580Z,99905.09
2019-06-20T03:53:48.342Z,99907.81
2019-06-20T03:56:15.108Z,99909.26
2019-06-20T03:58:41.842Z,99899.94
2019-06-20T04:01:08.619Z,99899.75
2019-06-20T04:03:35.359Z,99906.16
2019-06-20T04:06:02.123Z,99898.34
2019-06-20T04:08:28.875Z,99903.29
2019-06-20T04:10:55.640Z,99907.33
2019-06-20T04:13:22.390Z,99900.97
2019-06-20T04:15:49.215Z,99898.72
2019-06-20T04:18:15.947Z,99900.88
2019-06-20T04:20:42.714Z,99904.90
2019-06-20T04:23:09.460Z,99901.94
2019-06-20T04:25:36.242Z,99907.30
2019-06-20T04:28:02.996Z,99900.07
2019-06-20T04:30:29.788Z,99898.77
2019-06-20T04:32:56.522Z,99895.08
2019-06-20T04:35:23.316Z,99897.86
2019-06-20T04:37:50.095Z,99892.88
2019-06-20T04:40:16.858Z,99904.75
2019-06-20T04:42:43.613Z,99901.80
2019-06-20T04:45:34.698Z,99907.69
2019-06-20T04:47:51.737Z,99913.77
2019-06-20T04:50:18.497Z,99909.00
2019-06-20T04:52:45.248Z,99905.43
2019-06-20T04:55:12.008Z,99913.64
2019-06-20T04:57:38.762Z,99917.25
2019-06-20T05:00:05.523Z,99909.61
2019-06-20T05:02:33.292Z,99913.24
2019-06-20T05:05:00.282Z,99915.06
2019-06-20T05:07:27.007Z,99914.17
2019-06-20T05:09:53.790Z,99916.93
2019-06-20T05:12:20.996Z,99913.88
2019-06-20T05:14:47.763Z,99920.36
2019-06-20T05:17:14.509Z,99921.70
2019-06-20T05:19:41.267Z,99925.49
2019-06-20T05:22:08.021Z,99924.81
2019-06-20T05:24:34.851Z,99920.20
2019-06-20T05:27:01.606Z,99928.05
2019-06-20T05:29:28.371Z,99926.38
2019-06-20T05:31:55.147Z,99929.56
2019-06-20T05:34:21.890Z,99929.34
2019-06-20T05:36:48.867Z,99928.53
2019-06-20T05:39:15.614Z,99929.42
2019-06-20T05:41:42.528Z,99931.63
2019-06-20T05:44:09.170Z,99923.78
2019-06-20T05:46:35.943Z,99928.56
2019-06-20T05:49:02.714Z,99923.41
2019-06-20T05:51:29.479Z,99927.48
2019-06-20T05:53:56.244Z,99930.45
2019-06-20T05:56:23.018Z,99926.17
2019-06-20T05:58:50.583Z,99928.41
2019-06-20T06:01:16.543Z,99932.39
2019-06-20T06:03:43.296Z,99933.93
2019-06-20T06:06:10.067Z,99932.48
2019-06-20T06:08:36.861Z,99938.56
2019-06-20T06:11:03.834Z,99942.81
2019-06-20T06:13:30.612Z,99938.45
2019-06-20T06:15:57.404Z,99947.56
2019-06-20T06:18:24.147Z,99954.56
2019-06-20T06:20:50.936Z,99953.33
2019-06-20T06:23:17.708Z,99956.56
2019-06-20T06:25:44.571Z,99957.38
2019-06-20T06:28:12.557Z,99955.30
2019-06-20T06:30:38.237Z,99957.66
2019-06-20T06:33:04.983Z,99962.05
2019-06-20T06:35:31.754Z,99962.25
2019-06-20T06:37:58.527Z,99956.79
2019-06-20T06:40:25.298Z,99957.56
2019-06-20T06:42:52.073Z,99959.95
2019-06-20T06:45:18.884Z,99960.78
2019-06-20T06:47:45.736Z,99956.33
2019-06-20T06:50:12.495Z,99950.63
2019-06-20T06:52:39.258Z,99954.46
2019-06-20T06:55:06.041Z,99951.67
2019-06-20T06:57:32.808Z,99958.73
2019-06-20T06:59:59.600Z,99950.13
2019-06-20T07:02:26.328Z,99947.58
2019-06-20T07:04:53.072Z,99945.64
2019-06-20T07:07:19.839Z,99946.27
2019-06-20T07:09:46.578Z,99947.98
2019-06-20T07:12:13.378Z,99954.61
2019-06-20T07:14:42.703Z,99948.92
2019-06-20T07:17:06.946Z,99949.57
2019-06-20T07:19:33.683Z,99946.17
2019-06-20T07:22:00.468Z,99938.26
2019-06-20T07:24:27.198Z,99937.30
2019-06-20T07:26:53.959Z,99946.32
2019-06-20T07:29:20.794Z,99937.81
2019-06-20T07:31:47.550Z,99932.72
2019-06-20T07:34:14.275Z,99930.41
2019-06-20T07:36:41.039Z,99928.24
2019-06-20T07:39:08.307Z,99937.63
2019-06-20T07:41:35.147Z,99936.20
2019-06-20T07:44:01.922Z,99936.61
2019-06-20T07:46:29.518Z,99933.88
2019-06-20T07:48:58.382Z,99931.08
2019-06-20T07:51:27.329Z,99943.33
2019-06-20T07:53:54.233Z,99939.98
2019-06-20T07:56:22.364Z,99939.83
2019-06-20T07:58:49.103Z,99943.22
2019-06-20T08:01:16.650Z,99936.53
2019-06-20T08:03:45.265Z,99937.09
2019-06-20T08:06:10.268Z,99937.00
2019-06-20T08:08:37.051Z,99933.07
2019-06-20T08:11:03.811Z,99939.73
2019-06-20T08:13:30.564Z,99936.69
2019-06-20T08:15:57.806Z,99940.50
2019-06-20T08:18:24.553Z,99932.06
2019-06-20T08:20:51.422Z,99932.41
2019-06-20T08:23:18.233Z,99937.02
2019-06-20T08:25:45.072Z,99922.55
2019-06-20T08:28:11.970Z,99919.45
2019-06-20T08:30:38.724Z,99934.30
2019-06-20T08:33:11.714Z,99938.11
2019-06-20T08:35:32.443Z,99937.95
2019-06-20T08:38:00.957Z,99942.27
2019-06-20T08:40:26.137Z,99943.04
2019-06-20T08:42:53.124Z,99946.79
2019-06-20T08:45:20.070Z,99939.95
2019-06-20T08:47:46.947Z,99934.45
2019-06-20T08:50:13.796Z,99927.20
2019-06-20T08:52:40.664Z,99925.77
2019-06-20T08:55:07.443Z,99929.75
2019-06-20T08:57:34.247Z,99917.73
2019-06-20T09:00:01.035Z,99914.80
2019-06-20T09:02:27.827Z,99912.41
2019-06-20T09:04:55.213Z,99922.70
2019-06-20T09:07:21.418Z,99923.25
2019-06-20T09:09:48.168Z,99929.86
2019-06-20T09:12:14.923Z,99920.45
2019-06-20T09:14:41.718Z,99931.16
2019-06-20T09:17:08.516Z,99932.58
2019-06-20T09:19:35.219Z,99931.78
2019-06-20T09:22:02.020Z,99934.46
2019-06-20T09:24:28.846Z,99941.11
2019-06-20T09:26:55.728Z,99945.16
2019-06-20T09:29:22.562Z,99939.67
2019-06-20T09:31:49.346Z,99934.41
2019-06-20T09:34:16.187Z,99932.06
2019-06-20T09:36:45.198Z,99919.40
2019-06-20T09:39:11.972Z,99923.87
2019-06-20T09:41:38.757Z,99923.22
2019-06-20T09:44:05.576Z,99924.47
2019-06-20T09:46:32.397Z,99919.13
2019-06-20T09:48:59.155Z,99929.98
2019-06-20T09:51:26.003Z,99931.92
2019-06-20T09:53:53.881Z,99927.05
2019-06-20T09:56:19.626Z,99931.66
2019-06-20T09:58:47.853Z,99928.91
2019-06-20T10:01:13.195Z,99929.44
2019-06-20T10:03:40.013Z,99920.11
2019-06-20T10:06:14.133Z,99917.31
2019-06-20T10:08:33.687Z,99923.97
2019-06-20T10:11:00.514Z,99931.39
2019-06-20T10:13:27.286Z,99928.39
2019-06-20T10:15:54.047Z,99930.78
2019-06-20T10:18:20.859Z,99935.95
2019-06-20T10:20:48.844Z,99930.01
2019-06-20T10:23:14.531Z,99943.59
2019-06-20T10:25:41.436Z,99928.81
2019-06-20T10:28:08.347Z,99906.50
2019-06-20T10:30:35.091Z,99906.23
2019-06-20T10:33:01.903Z,99927.88
2019-06-20T10:35:28.649Z,99941.88
2019-06-20T10:37:56.983Z,99949.34
2019-06-20T10:40:22.614Z,99958.05
2019-06-20T10:42:50.247Z,99960.38
2019-06-20T10:45:16.421Z,99972.26
2019-06-20T10:47:44.079Z,99970.78
2019-06-20T10:50:10.098Z,99989.60
2019-06-20T10:52:36.877Z,99976.25
2019-06-20T10:55:04.362Z,99976.80
2019-06-20T10:57:31.170Z,99983.24
2019-06-20T10:59:57.919Z,99986.40
2019-06-20T11:02:24.689Z,99984.17
2019-06-20T11:04:51.475Z,99987.95
2019-06-20T11:07:18.272Z,99977.95
2019-06-20T11:09:45.246Z,99976.41
2019-06-20T11:12:11.766Z,99984.20
2019-06-20T11:14:39.139Z,99967.38
2019-06-20T11:17:05.362Z,99968.61
2019-06-20T11:19:32.200Z,99968.31
2019-06-20T11:21:58.983Z,99970.97
2019-06-20T11:24:25.746Z,99961.69
2019-06-20T11:26:53.557Z,99954.55
2019-06-20T11:29:20.367Z,99950.92
2019-06-20T11:31:48.246Z,99948.23
2019-06-20T11:34:13.991Z,99934.16
2019-06-20T11:36:40.752Z,99929.27
2019-06-20T11:39:07.587Z,99934.63
2019-06-20T11:41:34.962Z,99938.48
2019-06-20T11:44:01.159Z,99931.94
2019-06-20T11:46:28.050Z,99920.80
2019-06-20T11:48:54.800Z,99928.73
2019-06-20T11:51:21.566Z,99932.64
2019-06-20T11:53:48.446Z,99935.98
2019-06-20T11:56:15.206Z,99926.31
2019-06-20T11:58:42.023Z,99927.22
2019-06-20T12:01:08.764Z,99923.83
2019-06-20T12:03:35.983Z,99921.66
2019-06-20T12:06:02.724Z,99915.65
2019-06-20T12:08:29.509Z,99918.31
2019-06-20T12:10:56.340Z,99916.32
2019-06-20T12:13:23.068Z,99927.09
2019-06-20T12:15:49.875Z,99920.04
2019-06-20T12:18:16.643Z,99914.91
2019-06-20T12:20:44.504Z,99913.19
2019-06-20T12:23:10.169Z,99914.30
2019-06-20T12:25:39.062Z,99908.42
2019-06-20T12:28:03.764Z,99911.45
2019-06-20T12:30:30.598Z,99909.14
2019-06-20T12:32:57.450Z,99917.85
2019-06-20T12:35:24.204Z,99921.05
2019-06-20T12:37:52.134Z,99928.88
2019-06-20T12:40:17.739Z,99927.47
2019-06-20T12:42:44.860Z,99926.30
2019-06-20T12:45:12.875Z,99921.92
2019-06-20T12:47:40.237Z,99918.19
2019-06-20T12:50:06.371Z,99908.39
2019-06-20T12:52:33.197Z,99908.25
2019-06-20T12:54:59.939Z,99913.47
2019-06-20T12:57:26.721Z,99910.02
2019-06-20T12:59:53.510Z,99915.25
2019-06-20T13:02:20.308Z,99920.22
2019-06-20T13:04:47.124Z,99920.68
2019-06-20T13:07:13.895Z,99911.72
2019-06-20T13:09:42.116Z,99921.08
2019-06-20T13:12:07.439Z,99915.09
2019-06-20T13:14:34.232Z,99912.25
2019-06-20T13:17:01.071Z,99906.44
2019-06-20T13:19:27.946Z,99910.17
2019-06-20T13:21:54.723Z,99905.82
2019-06-20T13:24:21.521Z,99902.16
2019-06-20T13:26:49.007Z,99908.89
2019-06-20T13:29:15.511Z,99916.38
2019-06-20T13:31:58.456Z,99924.45
2019-06-20T13:34:09.605Z,99936.67
2019-06-20T13:36:36.396Z,99934.70
2019-06-20T13:39:04.921Z,99939.79
2019-06-20T13:41:32.475Z,99937.77
2019-06-20T13:43:59.279Z,99941.41
2019-06-20T13:46:26.047Z,99934.16
2019-06-20T13:48:52.971Z,99937.34
2019-06-20T13:51:21.539Z,99936.36
2019-06-20T13:53:48.648Z,99937.23
2019-06-20T13:56:15.060Z,99936.47
2019-06-20T13:58:42.298Z,99930.42
2019-06-20T14:01:08.579Z,99930.31
2019-06-20T14:03:35.346Z,99926.77
2019-06-20T14:06:02.103Z,99931.02
2019-06-20T14:08:28.886Z,99928.61
2019-06-20T14:10:55.680Z,99924.22
2019-06-20T14:13:22.466Z,99917.55
2019-06-20T14:15:49.211Z,99913.95
2019-06-20T14:18:15.984Z,99911.78
2019-06-20T14:20:44.573Z,99902.91
2019-06-20T14:23:09.556Z,99906.11
2019-06-20T14:25:36.273Z,99903.41
2019-06-20T14:28:03.058Z,99909.61
2019-06-20T14:30:29.860Z,99906.59
2019-06-20T14:32:56.651Z,99898.42
2019-06-20T14:35:23.439Z,99904.88
2019-06-20T14:37:51.816Z,99898.25
2019-06-20T14:40:16.961Z,99893.27
2019-06-20T14:42:44.538Z,99893.56
2019-06-20T14:45:10.491Z,99887.30
2019-06-20T14:47:37.242Z,99880.74
2019-06-20T14:50:04.678Z,99876.88
2019-06-20T14:52:31.437Z,99871.23
2019-06-20T14:54:58.212Z,99875.27
2019-06-20T14:57:24.951Z,99863.05
2019-06-20T14:59:52.650Z,99869.42
2019-06-20T15:02:18.489Z,99863.37
2019-06-20T15:04:46.230Z,99859.59
2019-06-20T15:07:12.031Z,99858.58
2019-06-20T15:09:38.809Z,99861.77
2019-06-20T15:12:05.555Z,99867.16
2019-06-20T15:14:32.319Z,99871.55
2019-06-20T15:16:59.072Z,99867.76
2019-06-20T15:19:25.859Z,99872.70
2019-06-20T15:21:52.621Z,99867.88
2019-06-20T15:24:19.442Z,99881.55
2019-06-20T15:26:47.655Z,99877.20
2019-06-20T15:29:12.934Z,99880.96
2019-06-20T15:31:39.754Z,99885.23
2019-06-20T15:34:06.517Z,99885.73
2019-06-20T15:36:33.280Z,99896.77
2019-06-20T15:39:00.123Z,99896.64
2019-06-20T15:41:26.860Z,99900.86
2019-06-20T15:43:53.824Z,99891.81
2019-06-20T15:46:20.415Z,99891.95
2019-06-20T15:48:47.171Z,99892.69
2019-06-20T15:51:13.907Z,99905.34
2019-06-20T15:53:40.674Z,99908.90
2019-06-20T15:56:07.479Z,99901.99
2019-06-20T15:58:34.246Z,99902.23
2019-06-20T16:01:01.000Z,99901.83
2019-06-20T16:03:28.001Z,99909.83
2019-06-20T16:05:55.683Z,99906.53
2019-06-20T16:08:22.461Z,99900.66
2019-06-20T16:10:49.235Z,99905.98
2019-06-20T16:13:16.007Z,99895.09
2019-06-20T16:15:42.817Z,99884.45
2019-06-20T16:18:09.559Z,99900.41
2019-06-20T16:20:36.327Z,99905.37
2019-06-20T16:23:03.080Z,99906.81
2019-06-20T16:25:29.843Z,99907.20
2019-06-20T16:27:56.610Z,99902.34
2019-06-20T16:30:23.372Z,99884.33
2019-06-20T16:32:50.123Z,99882.47
2019-06-20T16:35:16.891Z,99884.73
2019-06-20T16:37:43.635Z,99892.50
2019-06-20T16:40:10.450Z,99890.02
2019-06-20T16:42:37.206Z,99889.09
2019-06-20T16:45:04.310Z,99886.56
2019-06-20T16:47:31.076Z,99888.63
2019-06-20T16:49:57.831Z,99893.69
2019-06-20T16:52:24.571Z,99893.86
2019-06-20T16:54:51.406Z,99889.30
2019-06-20T16:57:18.152Z,99889.45
2019-06-20T16:59:44.932Z,99894.42
2019-06-20T17:02:11.728Z,99888.28
2019-06-20T17:04:38.530Z,99893.08
2019-06-20T17:07:05.278Z,99898.75
2019-06-20T17:09:32.064Z,99900.78
2019-06-20T17:11:58.836Z,99906.07
2019-06-20T17:14:25.662Z,99912.08
2019-06-20T17:16:52.347Z,99924.25
2019-06-20T17:19:19.102Z,99936.73
2019-06-20T17:21:45.839Z,99926.91
2019-06-20T17:24:12.623Z,99936.83
2019-06-20T17:26:39.395Z,99951.26
2019-06-20T17:29:06.135Z,99947.02
2019-06-20T17:31:32.902Z,99942.88
2019-06-20T17:33:59.663Z,99928.67
2019-06-20T17:36:26.418Z,99925.97
2019-06-20T17:38:53.211Z,99917.37
2019-06-20T17:41:19.971Z,99924.44
2019-06-20T17:43:46.718Z,99915.13
2019-06-20T17:46:13.459Z,99916.66
2019-06-20T17:48:40.290Z,99932.36
2019-06-20T17:51:07.038Z,99937.63
2019-06-20T17:53:34.866Z,99933.32
2019-06-20T17:56:01.770Z,99937.22
2019-06-20T17:58:28.492Z,99944.77
2019-06-20T18:00:55.390Z,99948.80
2019-06-20T18:03:22.094Z,99945.88
2019-06-20T18:05:48.877Z,99945.47
2019-06-20T18:08:15.772Z,99957.20
2019-06-20T18:10:43.412Z,99958.14
2019-06-20T18:13:10.138Z,99963.00
2019-06-20T18:15:36.902Z,99962.87
2019-06-20T18:18:03.663Z,99962.61
2019-06-20T18:20:30.437Z,99968.86
2019-06-20T18:22:57.172Z,99968.86
2019-06-20T18:25:23.934Z,99982.39
2019-06-20T18:27:50.811Z,99981.46
2019-06-20T18:30:17.581Z,100002.94
2019-06-20T18:32:44.335Z,100006.31
2019-06-20T18:35:11.163Z,100002.38
2019-06-20T18:37:37.914Z,100009.62
2019-06-20T18:40:04.900Z,100018.08
2019-06-20T18:42:31.667Z,100032.63
2019-06-20T18:44:58.440Z,100033.93
2019-06-20T18:47:25.209Z,100042.47
2019-06-20T18:49:52.079Z,100042.97
2019-06-20T18:52:18.855Z,100054.56
2019-06-20T18:54:45.610Z,100055.37
2019-06-20T18:57:12.373Z,100058.25
2019-06-20T18:59:39.146Z,100060.25
2019-06-20T19:02:06.627Z,100067.59
2019-06-20T19:04:46.312Z,100066.09
2019-06-20T19:07:00.051Z,100069.41
2019-06-20T19:09:26.839Z,100078.95
2019-06-20T19:11:53.652Z,100091.30
2019-06-20T19:14:20.606Z,100088.64
2019-06-20T19:16:47.342Z,100095.53
2019-06-20T19:19:14.100Z,100098.89
2019-06-20T19:21:40.850Z,100094.50
2019-06-20T19:24:07.607Z,100094.05
2019-06-20T19:26:34.434Z,100093.45
2019-06-20T19:29:01.207Z,100103.25
2019-06-20T19:31:27.945Z,100103.83
2019-06-20T19:33:54.739Z,100103.81
2019-06-20T19:36:21.497Z,100116.16
2019-06-20T19:38:48.266Z,100119.60
2019-06-20T19:41:15.079Z,100123.45
2019-06-20T19:43:41.863Z,100131.91
2019-06-20T19:46:08.647Z,100133.33
2019-06-20T19:48:36.991Z,100134.25
2019-06-20T19:51:03.312Z,100137.66
2019-06-20T19:53:30.088Z,100139.50
2019-06-20T19:55:56.881Z,100143.74
2019-06-20T19:58:23.723Z,100145.18
2019-06-20T20:00:50.495Z,100149.70
2019-06-20T20:03:17.250Z,100151.20
2019-06-20T20:05:44.101Z,100160.25
2019-06-20T20:08:10.931Z,100156.75
2019-06-20T20:10:41.850Z,100156.66
2019-06-20T20:13:08.573Z,100167.67
2019-06-20T20:15:35.352Z,100168.26
2019-06-20T20:18:02.118Z,100164.95
2019-06-20T20:20:28.886Z,100172.63
2019-06-20T20:22:55.645Z,100167.69
2019-06-20T20:25:22.418Z,100167.45
2019-06-20T20:27:49.176Z,100169.88
2019-06-20T20:30:16.091Z,100169.76
2019-06-20T20:32:42.831Z,100167.65
2019-06-20T20:35:09.623Z,100172.10
2019-06-20T20:37:36.413Z,100168.66
2019-06-20T20:40:03.881Z,100163.83
2019-06-20T20:42:30.629Z,100167.11
2019-06-20T20:44:57.439Z,100170.86
2019-06-20T20:47:24.186Z,100170.22
2019-06-20T20:49:50.971Z,100175.84
2019-06-20T20:52:17.745Z,100175.20
2019-06-20T20:54:44.535Z,100179.89
2019-06-20T20:57:11.355Z,100184.05
2019-06-20T20:59:38.131Z,100189.69
2019-06-20T21:02:04.908Z,100194.66
2019-06-20T21:04:31.679Z,100204.56
2019-06-20T21:06:58.426Z,100199.72
2019-06-20T21:09:25.258Z,100198.78
2019-06-20T21:11:51.989Z,100193.41
2019-06-20T21:14:18.778Z,100206.36
2019-06-20T21:16:45.582Z,100202.58
2019-06-20T21:19:12.350Z,100213.11
2019-06-20T21:21:39.167Z,100209.35
2019-06-20T21:24:05.967Z,100205.91
2019-06-20T21:26:48.255Z,100208.69
2019-06-20T21:28:59.508Z,100217.36
2019-06-20T21:31:26.286Z,100213.69
2019-06-20T21:33:54.489Z,100220.85
2019-06-20T21:36:19.853Z,100225.36
2019-06-20T21:38:46.623Z,100224.56
2019-06-20T21:41:13.386Z,100224.73
2019-06-20T21:43:40.252Z,100234.52
2019-06-20T21:46:07.091Z,100237.28
2019-06-20T21:48:33.876Z,100247.92
2019-06-20T21:51:00.781Z,100249.64
2019-06-20T21:53:27.559Z,100249.14
2019-06-20T21:55:54.364Z,100250.06
2019-06-20T21:58:21.107Z,100254.41
2019-06-20T22:00:48.530Z,100253.77
2019-06-20T22:03:15.342Z,100256.09
2019-06-20T22:05:42.062Z,100264.66
2019-06-20T22:08:08.806Z,100259.64
2019-06-20T22:10:35.628Z,100264.45
2019-06-20T22:13:03.482Z,100267.44
2019-06-20T22:15:30.256Z,100267.50
2019-06-20T22:17:57.052Z,100268.81
2019-06-20T22:20:23.807Z,100273.63
2019-06-20T22:22:50.562Z,100268.70
2019-06-20T22:25:17.446Z,100274.70
2019-06-20T22:27:44.169Z,100273.66
2019-06-20T22:30:11.019Z,100273.14
2019-06-20T22:32:37.775Z,100275.58
2019-06-20T22:35:04.774Z,100269.29
2019-06-20T22:37:31.537Z,100274.89
2019-06-20T22:39:58.355Z,100273.70
2019-06-20T22:42:25.093Z,100264.48
2019-06-20T22:44:51.866Z,100275.02
2019-06-20T22:47:18.606Z,100262.55
2019-06-20T22:49:45.421Z,100271.14
2019-06-20T22:52:12.271Z,100266.77
2019-06-20T22:54:39.022Z,100274.19
2019-06-20T22:57:05.785Z,100263.28
2019-06-20T22:59:32.603Z,100264.49
2019-06-20T23:01:59.410Z,100268.45
2019-06-20T23:04:26.168Z,100270.67
2019-06-20T23:06:56.794Z,100275.64
2019-06-20T23:09:19.699Z,100279.53
2019-06-20T23:11:46.507Z,100280.20
2019-06-20T23:14:13.336Z,100290.70
2019-06-20T23:16:40.093Z,100288.38
2019-06-20T23:19:06.882Z,100299.42
2019-06-20T23:21:33.647Z,100304.41
2019-06-20T23:24:00.428Z,100302.61
2019-06-20T23:26:27.179Z,100306.00
2019-06-20T23:28:59.814Z,100302.67
2019-06-20T23:31:26.607Z,100295.08
2019-06-20T23:33:53.345Z,100301.13
2019-06-20T23:36:20.135Z,100304.91
2019-06-20T23:38:46.875Z,100293.56
2019-06-20T23:41:13.667Z,100298.75
2019-06-20T23:43:40.417Z,100292.27
2019-06-20T23:46:07.209Z,100296.38
2019-06-20T23:48:33.954Z,100300.89
2019-06-20T23:51:00.783Z,100305.70
2019-06-20T23:53:27.546Z,100299.88
2019-06-20T23:55:54.371Z,100298.66
2019-06-20T23:58:21.160Z,100303.78
